sensor_id;sensor_type;location;lat;lon;timestamp;P1;durP1;ratioP1;P2;durP2;ratioP2
3311;SDS011;1668;49.648;8.570;2023-04-03T00:00:41;2.27;;;2.07;;
3311;SDS011;1668;49.648;8.570;2023-04-03T00:03:08;5.10;;;2.80;;
3311;SDS011;1668;49.648;8.570;2023-04-03T00:05:36;6.30;;;2.80;;
3311;SDS011;1668;49.648;8.570;2023-04-03T00:08:03;3.20;;;2.40;;
3311;SDS011;1668;49.648;8.570;2023-04-03T00:10:33;3.70;;;2.50;;
3311;SDS011;1668;49.648;8.570;2023-04-03T00:13:00;3.73;;;2.60;;
3311;SDS011;1668;49.648;8.570;2023-04-03T00:15:27;6.20;;;2.80;;
3311;SDS011;1668;49.648;8.570;2023-04-03T00:17:54;4.00;;;2.60;;
3311;SDS011;1668;49.648;8.570;2023-04-03T00:20:20;4.83;;;2.53;;
3311;SDS011;1668;49.648;8.570;2023-04-03T00:22:49;3.17;;;2.67;;
3311;SDS011;1668;49.648;8.570;2023-04-03T00:25:16;3.60;;;2.50;;
3311;SDS011;1668;49.648;8.570;2023-04-03T00:27:43;6.67;;;2.93;;
3311;SDS011;1668;49.648;8.570;2023-04-03T00:30:11;5.50;;;2.67;;
3311;SDS011;1668;49.648;8.570;2023-04-03T00:32:40;3.60;;;2.73;;
3311;SDS011;1668;49.648;8.570;2023-04-03T00:35:07;6.33;;;2.80;;
3311;SDS011;1668;49.648;8.570;2023-04-03T00:37:35;3.73;;;2.53;;
3311;SDS011;1668;49.648;8.570;2023-04-03T00:40:04;3.27;;;2.80;;
3311;SDS011;1668;49.648;8.570;2023-04-03T00:42:33;4.10;;;2.83;;
3311;SDS011;1668;49.648;8.570;2023-04-03T00:47:50;7.10;;;3.07;;
3311;SDS011;1668;49.648;8.570;2023-04-03T00:50:17;3.67;;;3.03;;
3311;SDS011;1668;49.648;8.570;2023-04-03T00:52:45;3.90;;;2.70;;
3311;SDS011;1668;49.648;8.570;2023-04-03T00:55:15;3.00;;;2.63;;
3311;SDS011;1668;49.648;8.570;2023-04-03T00:57:42;3.67;;;2.90;;
3311;SDS011;1668;49.648;8.570;2023-04-03T01:00:12;3.53;;;2.57;;
3311;SDS011;1668;49.648;8.570;2023-04-03T01:02:42;9.93;;;3.30;;
3311;SDS011;1668;49.648;8.570;2023-04-03T01:05:09;5.50;;;2.60;;
3311;SDS011;1668;49.648;8.570;2023-04-03T01:07:36;3.40;;;2.40;;
3311;SDS011;1668;49.648;8.570;2023-04-03T01:10:06;3.53;;;2.90;;
3311;SDS011;1668;49.648;8.570;2023-04-03T01:12:37;2.60;;;2.40;;
3311;SDS011;1668;49.648;8.570;2023-04-03T01:15:06;3.23;;;2.73;;
3311;SDS011;1668;49.648;8.570;2023-04-03T01:17:36;4.50;;;2.70;;
3311;SDS011;1668;49.648;8.570;2023-04-03T01:23:15;2.97;;;2.50;;
3311;SDS011;1668;49.648;8.570;2023-04-03T01:25:52;2.87;;;2.23;;
3311;SDS011;1668;49.648;8.570;2023-04-03T01:28:23;5.30;;;3.10;;
3311;SDS011;1668;49.648;8.570;2023-04-03T01:30:53;4.03;;;2.50;;
3311;SDS011;1668;49.648;8.570;2023-04-03T01:33:28;3.57;;;2.80;;
3311;SDS011;1668;49.648;8.570;2023-04-03T01:35:55;4.30;;;2.80;;
3311;SDS011;1668;49.648;8.570;2023-04-03T01:38:22;3.07;;;2.50;;
3311;SDS011;1668;49.648;8.570;2023-04-03T01:40:49;2.93;;;2.63;;
3311;SDS011;1668;49.648;8.570;2023-04-03T01:43:15;4.30;;;2.60;;
3311;SDS011;1668;49.648;8.570;2023-04-03T01:45:42;4.07;;;2.57;;
3311;SDS011;1668;49.648;8.570;2023-04-03T01:48:09;3.83;;;2.70;;
3311;SDS011;1668;49.648;8.570;2023-04-03T01:50:37;4.53;;;2.43;;
3311;SDS011;1668;49.648;8.570;2023-04-03T01:53:04;4.67;;;3.20;;
3311;SDS011;1668;49.648;8.570;2023-04-03T01:55:31;4.77;;;2.80;;
3311;SDS011;1668;49.648;8.570;2023-04-03T01:57:58;4.83;;;2.50;;
3311;SDS011;1668;49.648;8.570;2023-04-03T02:00:25;2.97;;;2.50;;
3311;SDS011;1668;49.648;8.570;2023-04-03T02:02:52;3.80;;;2.37;;
3311;SDS011;1668;49.648;8.570;2023-04-03T02:05:19;4.30;;;2.73;;
3311;SDS011;1668;49.648;8.570;2023-04-03T02:07:47;3.93;;;2.90;;
3311;SDS011;1668;49.648;8.570;2023-04-03T02:10:14;3.73;;;2.70;;
3311;SDS011;1668;49.648;8.570;2023-04-03T02:12:41;2.83;;;2.60;;
3311;SDS011;1668;49.648;8.570;2023-04-03T02:15:08;3.83;;;2.60;;
3311;SDS011;1668;49.648;8.570;2023-04-03T02:17:35;7.27;;;2.67;;
3311;SDS011;1668;49.648;8.570;2023-04-03T02:20:02;3.50;;;2.53;;
3311;SDS011;1668;49.648;8.570;2023-04-03T02:22:30;3.90;;;3.20;;
3311;SDS011;1668;49.648;8.570;2023-04-03T02:24:58;3.97;;;2.70;;
3311;SDS011;1668;49.648;8.570;2023-04-03T02:27:25;3.27;;;2.57;;
3311;SDS011;1668;49.648;8.570;2023-04-03T02:29:53;4.47;;;3.00;;
3311;SDS011;1668;49.648;8.570;2023-04-03T02:32:20;4.23;;;2.90;;
3311;SDS011;1668;49.648;8.570;2023-04-03T02:34:46;5.90;;;2.87;;
3311;SDS011;1668;49.648;8.570;2023-04-03T02:37:13;4.50;;;2.90;;
3311;SDS011;1668;49.648;8.570;2023-04-03T02:39:40;2.80;;;2.60;;
3311;SDS011;1668;49.648;8.570;2023-04-03T02:42:08;3.43;;;2.93;;
3311;SDS011;1668;49.648;8.570;2023-04-03T02:44:35;3.83;;;2.90;;
3311;SDS011;1668;49.648;8.570;2023-04-03T02:47:03;4.40;;;3.00;;
3311;SDS011;1668;49.648;8.570;2023-04-03T02:49:30;5.43;;;3.00;;
3311;SDS011;1668;49.648;8.570;2023-04-03T02:51:57;3.50;;;2.80;;
3311;SDS011;1668;49.648;8.570;2023-04-03T02:54:24;4.30;;;2.90;;
3311;SDS011;1668;49.648;8.570;2023-04-03T02:56:53;5.93;;;3.00;;
3311;SDS011;1668;49.648;8.570;2023-04-03T02:59:22;6.13;;;2.93;;
3311;SDS011;1668;49.648;8.570;2023-04-03T03:01:49;3.73;;;2.70;;
3311;SDS011;1668;49.648;8.570;2023-04-03T03:04:16;4.97;;;3.20;;
3311;SDS011;1668;49.648;8.570;2023-04-03T03:06:43;5.63;;;2.77;;
3311;SDS011;1668;49.648;8.570;2023-04-03T03:09:11;3.23;;;2.70;;
3311;SDS011;1668;49.648;8.570;2023-04-03T03:11:38;5.77;;;3.17;;
3311;SDS011;1668;49.648;8.570;2023-04-03T03:14:05;4.30;;;2.90;;
3311;SDS011;1668;49.648;8.570;2023-04-03T03:16:34;4.80;;;3.30;;
3311;SDS011;1668;49.648;8.570;2023-04-03T03:19:00;4.00;;;3.47;;
3311;SDS011;1668;49.648;8.570;2023-04-03T03:21:27;3.40;;;2.77;;
3311;SDS011;1668;49.648;8.570;2023-04-03T03:23:54;4.40;;;3.17;;
3311;SDS011;1668;49.648;8.570;2023-04-03T03:26:21;4.80;;;3.20;;
3311;SDS011;1668;49.648;8.570;2023-04-03T03:28:48;3.63;;;2.70;;
3311;SDS011;1668;49.648;8.570;2023-04-03T03:31:15;4.80;;;3.13;;
3311;SDS011;1668;49.648;8.570;2023-04-03T03:33:43;4.73;;;3.13;;
3311;SDS011;1668;49.648;8.570;2023-04-03T03:36:10;4.03;;;2.80;;
3311;SDS011;1668;49.648;8.570;2023-04-03T03:38:37;4.77;;;3.80;;
3311;SDS011;1668;49.648;8.570;2023-04-03T03:41:04;8.50;;;4.30;;
3311;SDS011;1668;49.648;8.570;2023-04-03T03:43:31;5.33;;;3.63;;
3311;SDS011;1668;49.648;8.570;2023-04-03T03:45:58;4.87;;;3.47;;
3311;SDS011;1668;49.648;8.570;2023-04-03T03:48:25;5.80;;;3.53;;
3311;SDS011;1668;49.648;8.570;2023-04-03T03:50:53;5.30;;;3.47;;
3311;SDS011;1668;49.648;8.570;2023-04-03T03:53:20;3.40;;;3.10;;
3311;SDS011;1668;49.648;8.570;2023-04-03T03:55:47;4.00;;;2.70;;
3311;SDS011;1668;49.648;8.570;2023-04-03T03:58:13;4.00;;;2.87;;
3311;SDS011;1668;49.648;8.570;2023-04-03T04:00:40;7.80;;;2.80;;
3311;SDS011;1668;49.648;8.570;2023-04-03T04:03:07;6.57;;;2.83;;
3311;SDS011;1668;49.648;8.570;2023-04-03T04:05:34;4.03;;;2.93;;
3311;SDS011;1668;49.648;8.570;2023-04-03T04:08:02;5.13;;;2.90;;
3311;SDS011;1668;49.648;8.570;2023-04-03T04:10:29;8.13;;;5.40;;
3311;SDS011;1668;49.648;8.570;2023-04-03T04:12:56;16.63;;;10.13;;
3311;SDS011;1668;49.648;8.570;2023-04-03T04:15:22;8.97;;;5.70;;
3311;SDS011;1668;49.648;8.570;2023-04-03T04:17:50;10.50;;;5.70;;
3311;SDS011;1668;49.648;8.570;2023-04-03T04:20:18;5.80;;;3.63;;
3311;SDS011;1668;49.648;8.570;2023-04-03T04:22:45;4.10;;;3.20;;
3311;SDS011;1668;49.648;8.570;2023-04-03T04:25:13;3.60;;;3.00;;
3311;SDS011;1668;49.648;8.570;2023-04-03T04:27:40;4.63;;;3.27;;
3311;SDS011;1668;49.648;8.570;2023-04-03T04:30:07;3.73;;;2.77;;
3311;SDS011;1668;49.648;8.570;2023-04-03T04:32:35;3.30;;;3.00;;
3311;SDS011;1668;49.648;8.570;2023-04-03T04:35:02;4.23;;;3.20;;
3311;SDS011;1668;49.648;8.570;2023-04-03T04:37:30;3.47;;;2.97;;
3311;SDS011;1668;49.648;8.570;2023-04-03T04:39:57;3.50;;;3.00;;
3311;SDS011;1668;49.648;8.570;2023-04-03T04:42:25;4.27;;;3.10;;
3311;SDS011;1668;49.648;8.570;2023-04-03T04:44:52;5.97;;;3.43;;
3311;SDS011;1668;49.648;8.570;2023-04-03T04:47:18;4.67;;;3.57;;
3311;SDS011;1668;49.648;8.570;2023-04-03T04:49:45;4.93;;;3.67;;
3311;SDS011;1668;49.648;8.570;2023-04-03T04:52:13;4.70;;;3.60;;
3311;SDS011;1668;49.648;8.570;2023-04-03T04:54:40;8.27;;;3.50;;
3311;SDS011;1668;49.648;8.570;2023-04-03T04:57:07;5.07;;;3.43;;
3311;SDS011;1668;49.648;8.570;2023-04-03T04:59:35;5.10;;;3.33;;
3311;SDS011;1668;49.648;8.570;2023-04-03T05:02:02;6.80;;;3.60;;
3311;SDS011;1668;49.648;8.570;2023-04-03T05:04:29;5.37;;;3.80;;
3311;SDS011;1668;49.648;8.570;2023-04-03T05:06:56;6.27;;;3.70;;
3311;SDS011;1668;49.648;8.570;2023-04-03T05:09:24;5.93;;;3.90;;
3311;SDS011;1668;49.648;8.570;2023-04-03T05:11:51;5.77;;;4.27;;
3311;SDS011;1668;49.648;8.570;2023-04-03T05:14:18;6.07;;;3.97;;
3311;SDS011;1668;49.648;8.570;2023-04-03T05:16:46;5.50;;;3.73;;
3311;SDS011;1668;49.648;8.570;2023-04-03T05:19:13;6.70;;;4.27;;
3311;SDS011;1668;49.648;8.570;2023-04-03T05:21:40;6.37;;;3.93;;
3311;SDS011;1668;49.648;8.570;2023-04-03T05:24:07;6.40;;;3.60;;
3311;SDS011;1668;49.648;8.570;2023-04-03T05:26:34;5.27;;;3.63;;
3311;SDS011;1668;49.648;8.570;2023-04-03T05:29:01;6.40;;;3.90;;
3311;SDS011;1668;49.648;8.570;2023-04-03T05:31:28;3.83;;;3.00;;
3311;SDS011;1668;49.648;8.570;2023-04-03T05:33:56;5.03;;;3.77;;
3311;SDS011;1668;49.648;8.570;2023-04-03T05:36:24;5.83;;;3.20;;
3311;SDS011;1668;49.648;8.570;2023-04-03T05:38:51;7.40;;;3.73;;
3311;SDS011;1668;49.648;8.570;2023-04-03T05:41:18;4.43;;;3.33;;
3311;SDS011;1668;49.648;8.570;2023-04-03T05:43:45;7.30;;;3.50;;
3311;SDS011;1668;49.648;8.570;2023-04-03T05:46:13;3.40;;;3.10;;
3311;SDS011;1668;49.648;8.570;2023-04-03T05:48:41;5.63;;;4.20;;
3311;SDS011;1668;49.648;8.570;2023-04-03T05:51:12;6.67;;;4.20;;
3311;SDS011;1668;49.648;8.570;2023-04-03T05:53:41;5.10;;;3.70;;
3311;SDS011;1668;49.648;8.570;2023-04-03T05:56:09;5.90;;;3.57;;
3311;SDS011;1668;49.648;8.570;2023-04-03T05:58:36;5.50;;;3.40;;
3311;SDS011;1668;49.648;8.570;2023-04-03T06:01:03;4.80;;;3.60;;
3311;SDS011;1668;49.648;8.570;2023-04-03T06:03:30;7.10;;;3.93;;
3311;SDS011;1668;49.648;8.570;2023-04-03T06:05:57;5.93;;;4.23;;
3311;SDS011;1668;49.648;8.570;2023-04-03T06:08:25;7.47;;;3.90;;
3311;SDS011;1668;49.648;8.570;2023-04-03T06:10:52;6.20;;;4.17;;
3311;SDS011;1668;49.648;8.570;2023-04-03T06:13:19;6.53;;;3.60;;
3311;SDS011;1668;49.648;8.570;2023-04-03T06:15:47;6.80;;;3.60;;
3311;SDS011;1668;49.648;8.570;2023-04-03T06:18:13;6.13;;;3.30;;
3311;SDS011;1668;49.648;8.570;2023-04-03T06:20:40;5.73;;;3.10;;
3311;SDS011;1668;49.648;8.570;2023-04-03T06:23:07;5.70;;;3.40;;
3311;SDS011;1668;49.648;8.570;2023-04-03T06:25:36;4.50;;;3.13;;
3311;SDS011;1668;49.648;8.570;2023-04-03T06:28:03;6.87;;;3.43;;
3311;SDS011;1668;49.648;8.570;2023-04-03T06:30:30;7.53;;;3.13;;
3311;SDS011;1668;49.648;8.570;2023-04-03T06:32:57;3.70;;;2.73;;
3311;SDS011;1668;49.648;8.570;2023-04-03T06:35:24;4.60;;;2.93;;
3311;SDS011;1668;49.648;8.570;2023-04-03T06:37:53;5.00;;;3.30;;
3311;SDS011;1668;49.648;8.570;2023-04-03T06:40:21;5.20;;;3.00;;
3311;SDS011;1668;49.648;8.570;2023-04-03T06:42:51;5.30;;;2.73;;
3311;SDS011;1668;49.648;8.570;2023-04-03T06:45:18;5.97;;;2.93;;
3311;SDS011;1668;49.648;8.570;2023-04-03T06:47:45;4.40;;;2.50;;
3311;SDS011;1668;49.648;8.570;2023-04-03T06:50:12;6.27;;;2.67;;
3311;SDS011;1668;49.648;8.570;2023-04-03T06:52:40;5.50;;;2.70;;
3311;SDS011;1668;49.648;8.570;2023-04-03T06:55:07;4.83;;;2.93;;
3311;SDS011;1668;49.648;8.570;2023-04-03T06:57:35;7.63;;;3.20;;
3311;SDS011;1668;49.648;8.570;2023-04-03T07:00:04;4.50;;;2.60;;
3311;SDS011;1668;49.648;8.570;2023-04-03T07:02:32;6.30;;;2.43;;
3311;SDS011;1668;49.648;8.570;2023-04-03T07:04:59;5.70;;;2.97;;
3311;SDS011;1668;49.648;8.570;2023-04-03T07:07:26;5.07;;;2.70;;
3311;SDS011;1668;49.648;8.570;2023-04-03T07:09:53;9.10;;;3.00;;
3311;SDS011;1668;49.648;8.570;2023-04-03T07:12:20;7.53;;;2.53;;
3311;SDS011;1668;49.648;8.570;2023-04-03T07:14:47;4.27;;;2.60;;
3311;SDS011;1668;49.648;8.570;2023-04-03T07:17:15;3.90;;;2.70;;
3311;SDS011;1668;49.648;8.570;2023-04-03T07:19:42;7.53;;;2.80;;
3311;SDS011;1668;49.648;8.570;2023-04-03T07:22:09;4.47;;;2.50;;
3311;SDS011;1668;49.648;8.570;2023-04-03T07:24:36;7.40;;;2.70;;
3311;SDS011;1668;49.648;8.570;2023-04-03T07:27:03;4.07;;;2.70;;
3311;SDS011;1668;49.648;8.570;2023-04-03T07:29:30;5.73;;;2.87;;
3311;SDS011;1668;49.648;8.570;2023-04-03T07:31:57;5.47;;;2.90;;
3311;SDS011;1668;49.648;8.570;2023-04-03T07:34:25;4.23;;;2.50;;
3311;SDS011;1668;49.648;8.570;2023-04-03T07:36:52;8.30;;;3.00;;
3311;SDS011;1668;49.648;8.570;2023-04-03T07:39:19;3.93;;;2.43;;
3311;SDS011;1668;49.648;8.570;2023-04-03T07:41:46;3.17;;;2.17;;
3311;SDS011;1668;49.648;8.570;2023-04-03T07:44:13;7.07;;;2.27;;
3311;SDS011;1668;49.648;8.570;2023-04-03T07:46:40;5.33;;;2.70;;
3311;SDS011;1668;49.648;8.570;2023-04-03T07:49:07;4.60;;;2.53;;
3311;SDS011;1668;49.648;8.570;2023-04-03T07:51:35;5.80;;;2.53;;
3311;SDS011;1668;49.648;8.570;2023-04-03T07:54:02;6.67;;;2.47;;
3311;SDS011;1668;49.648;8.570;2023-04-03T07:56:30;5.43;;;2.17;;
3311;SDS011;1668;49.648;8.570;2023-04-03T07:58:57;4.13;;;2.47;;
3311;SDS011;1668;49.648;8.570;2023-04-03T08:01:23;3.93;;;2.33;;
3311;SDS011;1668;49.648;8.570;2023-04-03T08:03:50;4.33;;;2.47;;
3311;SDS011;1668;49.648;8.570;2023-04-03T08:06:17;4.17;;;2.20;;
3311;SDS011;1668;49.648;8.570;2023-04-03T08:08:45;3.57;;;2.10;;
3311;SDS011;1668;49.648;8.570;2023-04-03T08:11:13;2.90;;;1.80;;
3311;SDS011;1668;49.648;8.570;2023-04-03T08:13:40;4.37;;;2.13;;
3311;SDS011;1668;49.648;8.570;2023-04-03T08:16:11;9.80;;;2.27;;
3311;SDS011;1668;49.648;8.570;2023-04-03T08:18:41;4.60;;;1.77;;
3311;SDS011;1668;49.648;8.570;2023-04-03T08:21:08;3.53;;;1.77;;
3311;SDS011;1668;49.648;8.570;2023-04-03T08:23:36;5.57;;;2.50;;
3311;SDS011;1668;49.648;8.570;2023-04-03T08:26:09;4.50;;;2.23;;
3311;SDS011;1668;49.648;8.570;2023-04-03T08:28:37;4.53;;;2.00;;
3311;SDS011;1668;49.648;8.570;2023-04-03T08:31:05;4.20;;;1.50;;
3311;SDS011;1668;49.648;8.570;2023-04-03T08:33:36;4.47;;;1.90;;
3311;SDS011;1668;49.648;8.570;2023-04-03T08:36:03;5.53;;;3.17;;
3311;SDS011;1668;49.648;8.570;2023-04-03T08:38:30;4.73;;;2.33;;
3311;SDS011;1668;49.648;8.570;2023-04-03T08:41:02;3.23;;;1.70;;
3311;SDS011;1668;49.648;8.570;2023-04-03T08:43:39;4.70;;;1.67;;
3311;SDS011;1668;49.648;8.570;2023-04-03T08:46:24;3.00;;;1.63;;
3311;SDS011;1668;49.648;8.570;2023-04-03T08:48:59;4.70;;;1.60;;
3311;SDS011;1668;49.648;8.570;2023-04-03T08:51:26;1.90;;;1.40;;
3311;SDS011;1668;49.648;8.570;2023-04-03T08:53:56;2.13;;;1.33;;
3311;SDS011;1668;49.648;8.570;2023-04-03T08:56:26;3.70;;;1.43;;
3311;SDS011;1668;49.648;8.570;2023-04-03T08:58:57;6.10;;;2.10;;
3311;SDS011;1668;49.648;8.570;2023-04-03T09:01:27;2.87;;;1.90;;
3311;SDS011;1668;49.648;8.570;2023-04-03T09:04:00;3.57;;;1.33;;
3311;SDS011;1668;49.648;8.570;2023-04-03T09:06:29;3.60;;;1.63;;
3311;SDS011;1668;49.648;8.570;2023-04-03T09:09:02;4.00;;;2.07;;
3311;SDS011;1668;49.648;8.570;2023-04-03T09:11:41;4.30;;;1.60;;
3311;SDS011;1668;49.648;8.570;2023-04-03T09:14:19;3.90;;;1.60;;
3311;SDS011;1668;49.648;8.570;2023-04-03T09:16:53;3.13;;;1.40;;
3311;SDS011;1668;49.648;8.570;2023-04-03T09:19:25;6.00;;;1.47;;
3311;SDS011;1668;49.648;8.570;2023-04-03T09:22:09;4.27;;;1.83;;
3311;SDS011;1668;49.648;8.570;2023-04-03T09:24:42;4.93;;;1.40;;
3311;SDS011;1668;49.648;8.570;2023-04-03T09:27:11;4.37;;;1.50;;
3311;SDS011;1668;49.648;8.570;2023-04-03T09:29:40;3.90;;;1.60;;
3311;SDS011;1668;49.648;8.570;2023-04-03T09:32:21;2.97;;;1.50;;
3311;SDS011;1668;49.648;8.570;2023-04-03T09:34:52;2.43;;;1.50;;
3311;SDS011;1668;49.648;8.570;2023-04-03T09:37:35;3.13;;;1.40;;
3311;SDS011;1668;49.648;8.570;2023-04-03T09:40:05;4.23;;;1.50;;
3311;SDS011;1668;49.648;8.570;2023-04-03T09:42:55;3.00;;;1.17;;
3311;SDS011;1668;49.648;8.570;2023-04-03T09:45:25;3.40;;;1.23;;
3311;SDS011;1668;49.648;8.570;2023-04-03T09:50:52;4.83;;;1.97;;
3311;SDS011;1668;49.648;8.570;2023-04-03T09:53:28;3.97;;;1.60;;
3311;SDS011;1668;49.648;8.570;2023-04-03T09:55:56;3.20;;;1.40;;
3311;SDS011;1668;49.648;8.570;2023-04-03T09:58:25;1.90;;;1.20;;
3311;SDS011;1668;49.648;8.570;2023-04-03T10:00:56;6.90;;;1.60;;
3311;SDS011;1668;49.648;8.570;2023-04-03T10:03:26;4.47;;;1.40;;
3311;SDS011;1668;49.648;8.570;2023-04-03T10:05:56;3.10;;;1.30;;
3311;SDS011;1668;49.648;8.570;2023-04-03T10:08:25;2.80;;;1.43;;
3311;SDS011;1668;49.648;8.570;2023-04-03T10:11:11;4.70;;;1.30;;
3311;SDS011;1668;49.648;8.570;2023-04-03T10:16:34;3.23;;;1.23;;
3311;SDS011;1668;49.648;8.570;2023-04-03T10:19:13;3.40;;;1.27;;
3311;SDS011;1668;49.648;8.570;2023-04-03T10:21:54;3.20;;;1.23;;
3311;SDS011;1668;49.648;8.570;2023-04-03T10:24:28;3.50;;;1.33;;
3311;SDS011;1668;49.648;8.570;2023-04-03T10:27:02;3.83;;;1.10;;
3311;SDS011;1668;49.648;8.570;2023-04-03T10:29:40;4.30;;;1.30;;
3311;SDS011;1668;49.648;8.570;2023-04-03T10:32:17;2.40;;;1.30;;
3311;SDS011;1668;49.648;8.570;2023-04-03T10:34:57;4.33;;;1.50;;
3311;SDS011;1668;49.648;8.570;2023-04-03T10:37:35;4.13;;;2.80;;
3311;SDS011;1668;49.648;8.570;2023-04-03T10:40:15;3.13;;;1.57;;
3311;SDS011;1668;49.648;8.570;2023-04-03T10:42:50;3.33;;;1.17;;
3311;SDS011;1668;49.648;8.570;2023-04-03T10:45:24;3.67;;;1.30;;
3311;SDS011;1668;49.648;8.570;2023-04-03T10:47:58;3.87;;;1.83;;
3311;SDS011;1668;49.648;8.570;2023-04-03T10:50:37;2.40;;;1.27;;
3311;SDS011;1668;49.648;8.570;2023-04-03T10:53:12;5.80;;;1.40;;
3311;SDS011;1668;49.648;8.570;2023-04-03T10:55:48;3.23;;;1.40;;
3311;SDS011;1668;49.648;8.570;2023-04-03T10:58:21;2.53;;;1.40;;
3311;SDS011;1668;49.648;8.570;2023-04-03T11:00:54;2.83;;;1.20;;
3311;SDS011;1668;49.648;8.570;2023-04-03T11:03:29;2.73;;;1.30;;
3311;SDS011;1668;49.648;8.570;2023-04-03T11:05:59;4.73;;;1.60;;
3311;SDS011;1668;49.648;8.570;2023-04-03T11:08:33;3.90;;;1.13;;
3311;SDS011;1668;49.648;8.570;2023-04-03T11:11:04;2.83;;;1.10;;
3311;SDS011;1668;49.648;8.570;2023-04-03T11:13:35;3.50;;;1.60;;
3311;SDS011;1668;49.648;8.570;2023-04-03T11:16:06;2.23;;;1.50;;
3311;SDS011;1668;49.648;8.570;2023-04-03T11:18:37;2.90;;;1.60;;
3311;SDS011;1668;49.648;8.570;2023-04-03T11:21:07;3.30;;;1.47;;
3311;SDS011;1668;49.648;8.570;2023-04-03T11:23:40;2.20;;;1.20;;
3311;SDS011;1668;49.648;8.570;2023-04-03T11:26:08;1.63;;;1.10;;
3311;SDS011;1668;49.648;8.570;2023-04-03T11:28:37;3.27;;;1.73;;
3311;SDS011;1668;49.648;8.570;2023-04-03T11:31:09;2.70;;;1.30;;
3311;SDS011;1668;49.648;8.570;2023-04-03T11:33:58;3.20;;;1.33;;
3311;SDS011;1668;49.648;8.570;2023-04-03T11:36:34;2.80;;;1.60;;
3311;SDS011;1668;49.648;8.570;2023-04-03T11:39:09;2.40;;;1.20;;
3311;SDS011;1668;49.648;8.570;2023-04-03T11:41:45;1.70;;;1.20;;
3311;SDS011;1668;49.648;8.570;2023-04-03T11:44:28;4.50;;;1.43;;
3311;SDS011;1668;49.648;8.570;2023-04-03T11:46:59;4.03;;;1.40;;
3311;SDS011;1668;49.648;8.570;2023-04-03T11:55:41;2.47;;;1.43;;
3311;SDS011;1668;49.648;8.570;2023-04-03T11:58:23;4.17;;;1.77;;
3311;SDS011;1668;49.648;8.570;2023-04-03T12:01:08;3.73;;;1.27;;
3311;SDS011;1668;49.648;8.570;2023-04-03T12:12:42;3.47;;;2.17;;
3311;SDS011;1668;49.648;8.570;2023-04-03T12:18:31;3.03;;;1.20;;
3311;SDS011;1668;49.648;8.570;2023-04-03T12:21:07;2.40;;;1.30;;
3311;SDS011;1668;49.648;8.570;2023-04-03T12:23:35;2.47;;;1.30;;
3311;SDS011;1668;49.648;8.570;2023-04-03T12:26:21;4.00;;;1.40;;
3311;SDS011;1668;49.648;8.570;2023-04-03T12:28:52;3.87;;;1.60;;
3311;SDS011;1668;49.648;8.570;2023-04-03T12:31:20;2.53;;;1.70;;
3311;SDS011;1668;49.648;8.570;2023-04-03T12:34:13;4.63;;;1.67;;
3311;SDS011;1668;49.648;8.570;2023-04-03T12:36:50;3.90;;;2.13;;
3311;SDS011;1668;49.648;8.570;2023-04-03T12:39:35;5.83;;;2.00;;
3311;SDS011;1668;49.648;8.570;2023-04-03T12:42:30;2.60;;;1.57;;
3311;SDS011;1668;49.648;8.570;2023-04-03T12:45:09;3.63;;;1.70;;
3311;SDS011;1668;49.648;8.570;2023-04-03T12:47:43;3.13;;;1.53;;
3311;SDS011;1668;49.648;8.570;2023-04-03T12:50:16;5.17;;;1.97;;
3311;SDS011;1668;49.648;8.570;2023-04-03T12:52:50;3.80;;;1.50;;
3311;SDS011;1668;49.648;8.570;2023-04-03T12:55:24;2.70;;;1.40;;
3311;SDS011;1668;49.648;8.570;2023-04-03T12:57:51;2.03;;;1.40;;
3311;SDS011;1668;49.648;8.570;2023-04-03T13:00:30;1.83;;;1.17;;
3311;SDS011;1668;49.648;8.570;2023-04-03T13:02:59;2.90;;;1.43;;
3311;SDS011;1668;49.648;8.570;2023-04-03T13:05:28;3.20;;;1.73;;
3311;SDS011;1668;49.648;8.570;2023-04-03T13:07:58;5.80;;;1.90;;
3311;SDS011;1668;49.648;8.570;2023-04-03T13:10:29;3.10;;;1.70;;
3311;SDS011;1668;49.648;8.570;2023-04-03T13:12:58;3.10;;;1.47;;
3311;SDS011;1668;49.648;8.570;2023-04-03T13:15:39;4.30;;;1.83;;
3311;SDS011;1668;49.648;8.570;2023-04-03T13:18:21;3.03;;;1.33;;
3311;SDS011;1668;49.648;8.570;2023-04-03T13:20:53;2.50;;;1.57;;
3311;SDS011;1668;49.648;8.570;2023-04-03T13:23:27;2.87;;;1.60;;
3311;SDS011;1668;49.648;8.570;2023-04-03T13:25:56;3.20;;;1.77;;
3311;SDS011;1668;49.648;8.570;2023-04-03T13:28:27;4.40;;;1.90;;
3311;SDS011;1668;49.648;8.570;2023-04-03T13:31:02;3.40;;;1.50;;
3311;SDS011;1668;49.648;8.570;2023-04-03T13:33:35;2.30;;;1.50;;
3311;SDS011;1668;49.648;8.570;2023-04-03T13:36:04;2.30;;;1.57;;
3311;SDS011;1668;49.648;8.570;2023-04-03T13:38:34;5.53;;;1.67;;
3311;SDS011;1668;49.648;8.570;2023-04-03T13:41:04;4.00;;;1.50;;
3311;SDS011;1668;49.648;8.570;2023-04-03T13:43:46;2.37;;;1.90;;
3311;SDS011;1668;49.648;8.570;2023-04-03T13:46:23;2.40;;;1.60;;
3311;SDS011;1668;49.648;8.570;2023-04-03T13:48:53;3.40;;;1.93;;
3311;SDS011;1668;49.648;8.570;2023-04-03T13:51:21;3.63;;;1.70;;
3311;SDS011;1668;49.648;8.570;2023-04-03T13:53:51;3.27;;;1.73;;
3311;SDS011;1668;49.648;8.570;2023-04-03T13:56:22;2.23;;;1.47;;
3311;SDS011;1668;49.648;8.570;2023-04-03T13:58:57;2.60;;;1.63;;
3311;SDS011;1668;49.648;8.570;2023-04-03T14:01:32;3.70;;;1.60;;
3311;SDS011;1668;49.648;8.570;2023-04-03T14:04:10;2.60;;;1.50;;
3311;SDS011;1668;49.648;8.570;2023-04-03T14:06:39;3.40;;;1.40;;
3311;SDS011;1668;49.648;8.570;2023-04-03T14:09:06;3.07;;;1.40;;
3311;SDS011;1668;49.648;8.570;2023-04-03T14:11:35;4.33;;;2.03;;
3311;SDS011;1668;49.648;8.570;2023-04-03T14:14:02;6.80;;;1.80;;
3311;SDS011;1668;49.648;8.570;2023-04-03T14:16:37;3.20;;;1.80;;
3311;SDS011;1668;49.648;8.570;2023-04-03T14:19:06;3.33;;;1.57;;
3311;SDS011;1668;49.648;8.570;2023-04-03T14:21:40;3.90;;;1.80;;
3311;SDS011;1668;49.648;8.570;2023-04-03T14:24:07;2.80;;;1.73;;
3311;SDS011;1668;49.648;8.570;2023-04-03T14:26:35;2.93;;;1.63;;
3311;SDS011;1668;49.648;8.570;2023-04-03T14:29:02;2.30;;;1.77;;
3311;SDS011;1668;49.648;8.570;2023-04-03T14:31:29;3.03;;;1.50;;
3311;SDS011;1668;49.648;8.570;2023-04-03T14:33:56;2.47;;;1.60;;
3311;SDS011;1668;49.648;8.570;2023-04-03T14:36:23;3.03;;;1.40;;
3311;SDS011;1668;49.648;8.570;2023-04-03T14:38:52;3.80;;;2.13;;
3311;SDS011;1668;49.648;8.570;2023-04-03T14:41:21;3.23;;;1.83;;
3311;SDS011;1668;49.648;8.570;2023-04-03T14:43:51;5.80;;;1.63;;
3311;SDS011;1668;49.648;8.570;2023-04-03T14:46:19;2.83;;;1.50;;
3311;SDS011;1668;49.648;8.570;2023-04-03T14:48:50;2.93;;;1.57;;
3311;SDS011;1668;49.648;8.570;2023-04-03T14:51:16;2.90;;;1.57;;
3311;SDS011;1668;49.648;8.570;2023-04-03T14:53:43;3.60;;;1.33;;
3311;SDS011;1668;49.648;8.570;2023-04-03T14:56:12;2.63;;;1.70;;
3311;SDS011;1668;49.648;8.570;2023-04-03T14:58:40;3.30;;;1.80;;
3311;SDS011;1668;49.648;8.570;2023-04-03T15:01:09;3.00;;;1.87;;
3311;SDS011;1668;49.648;8.570;2023-04-03T15:03:37;2.47;;;1.60;;
3311;SDS011;1668;49.648;8.570;2023-04-03T15:06:04;3.43;;;1.50;;
3311;SDS011;1668;49.648;8.570;2023-04-03T15:08:31;4.20;;;1.60;;
3311;SDS011;1668;49.648;8.570;2023-04-03T15:10:58;8.63;;;1.60;;
3311;SDS011;1668;49.648;8.570;2023-04-03T15:13:26;38.47;;;4.20;;
3311;SDS011;1668;49.648;8.570;2023-04-03T15:15:53;7.20;;;1.60;;
3311;SDS011;1668;49.648;8.570;2023-04-03T15:18:21;2.80;;;1.40;;
3311;SDS011;1668;49.648;8.570;2023-04-03T15:20:51;5.90;;;1.50;;
3311;SDS011;1668;49.648;8.570;2023-04-03T15:23:18;11.37;;;1.57;;
3311;SDS011;1668;49.648;8.570;2023-04-03T15:25:46;2.20;;;1.10;;
3311;SDS011;1668;49.648;8.570;2023-04-03T15:28:17;3.53;;;1.30;;
3311;SDS011;1668;49.648;8.570;2023-04-03T15:30:48;4.33;;;1.63;;
3311;SDS011;1668;49.648;8.570;2023-04-03T15:33:15;2.50;;;1.53;;
3311;SDS011;1668;49.648;8.570;2023-04-03T15:35:43;4.00;;;1.40;;
3311;SDS011;1668;49.648;8.570;2023-04-03T15:38:10;6.23;;;1.83;;
3311;SDS011;1668;49.648;8.570;2023-04-03T15:40:37;6.90;;;1.47;;
3311;SDS011;1668;49.648;8.570;2023-04-03T15:43:04;9.10;;;2.10;;
3311;SDS011;1668;49.648;8.570;2023-04-03T15:45:31;14.43;;;1.80;;
3311;SDS011;1668;49.648;8.570;2023-04-03T15:47:59;14.50;;;2.40;;
3311;SDS011;1668;49.648;8.570;2023-04-03T15:50:27;8.40;;;1.70;;
3311;SDS011;1668;49.648;8.570;2023-04-03T15:52:55;26.17;;;3.57;;
3311;SDS011;1668;49.648;8.570;2023-04-03T15:55:23;10.20;;;1.80;;
3311;SDS011;1668;49.648;8.570;2023-04-03T15:57:51;2.33;;;1.43;;
3311;SDS011;1668;49.648;8.570;2023-04-03T16:00:19;3.50;;;1.20;;